createdAt,value
2023-11-12T00:01:15.065Z,57.37
2023-11-12T00:03:45.539Z,55.92
2023-11-12T00:06:13.979Z,57.19
2023-11-12T00:08:42.108Z,56.77
2023-11-12T00:11:10.146Z,57.31
2023-11-12T00:13:37.678Z,57.57
2023-11-12T00:16:05.873Z,56.57
2023-11-12T00:18:35.468Z,56.61
2023-11-12T00:21:03.183Z,55.72
2023-11-12T00:23:42.875Z,56.21
2023-11-12T00:26:11.478Z,57.76
2023-11-12T00:28:42.108Z,57.18
2023-11-12T00:31:09.839Z,56.42
2023-11-12T00:33:39.592Z,56.34
2023-11-12T00:36:09.438Z,58.11
2023-11-12T00:38:37.745Z,56.44
2023-11-12T00:41:07.385Z,57.01
2023-11-12T00:43:35.752Z,56.84
2023-11-12T00:46:05.457Z,56.56
2023-11-12T00:48:34.515Z,56.22
2023-11-12T00:51:02.498Z,55.61
2023-11-12T00:53:31.857Z,54.68
2023-11-12T00:56:02.493Z,54.17
2023-11-12T00:58:30.582Z,56.70
2023-11-12T01:00:58.352Z,55.84
2023-11-12T01:03:30.326Z,56.60
2023-11-12T01:05:58.225Z,55.37
2023-11-12T01:08:25.746Z,55.99
2023-11-12T01:10:56.552Z,55.61
2023-11-12T01:13:24.638Z,55.43
2023-11-12T01:15:53.091Z,55.11
2023-11-12T01:18:22.443Z,55.20
2023-11-12T01:20:51.797Z,55.79
2023-11-12T01:23:19.553Z,56.10
2023-11-12T01:25:48.496Z,56.26
2023-11-12T01:28:16.679Z,54.70
2023-11-12T01:30:44.217Z,53.96
2023-11-12T01:33:12.652Z,54.87
2023-11-12T01:35:41.201Z,56.21
2023-11-12T01:38:08.609Z,55.92
2023-11-12T01:40:41.105Z,55.54
2023-11-12T01:43:09.488Z,56.23
2023-11-12T01:45:37.650Z,55.42
2023-11-12T01:48:06.419Z,55.74
2023-11-12T01:50:35.238Z,55.89
2023-11-12T01:53:03.138Z,55.76
2023-11-12T01:55:32.129Z,55.85
2023-11-12T01:58:02.060Z,55.05
2023-11-12T02:00:29.943Z,53.92
2023-11-12T02:02:59.416Z,53.54
2023-11-12T02:05:27.192Z,53.62
2023-11-12T02:08:01.948Z,53.59
2023-11-12T02:10:36.654Z,53.66
2023-11-12T02:13:05.800Z,52.66
2023-11-12T02:15:37.195Z,53.99
2023-11-12T02:18:05.047Z,53.67
2023-11-12T02:20:33.316Z,53.69
2023-11-12T02:23:01.324Z,53.02
2023-11-12T02:25:58.720Z,54.10
2023-11-12T02:28:26.510Z,53.61
2023-11-12T02:30:56.934Z,53.99
2023-11-12T02:33:29.161Z,53.81
2023-11-12T02:35:57.373Z,53.14
2023-11-12T02:38:25.734Z,52.78
2023-11-12T02:40:53.368Z,54.37
2023-11-12T02:43:21.438Z,54.11
2023-11-12T02:45:50.642Z,53.43
2023-11-12T02:48:18.675Z,53.38
2023-11-12T02:50:46.964Z,53.88
2023-11-12T02:53:14.718Z,54.00
2023-11-12T02:55:43.209Z,53.66
2023-11-12T02:58:11.668Z,54.22
2023-11-12T03:00:40.169Z,54.85
2023-11-12T03:03:07.933Z,54.66
2023-11-12T03:05:35.768Z,55.43
2023-11-12T03:08:03.989Z,55.30
2023-11-12T03:10:31.732Z,54.65
2023-11-12T03:13:00.973Z,55.11
2023-11-12T03:15:29.400Z,55.49
2023-11-12T03:17:57.360Z,55.36
2023-11-12T03:20:24.886Z,55.58
2023-11-12T03:22:54.897Z,55.86
2023-11-12T03:25:22.832Z,55.49
2023-11-12T03:27:50.672Z,54.74
2023-11-12T03:30:19.168Z,54.67
2023-11-12T03:32:47.361Z,55.00
2023-11-12T03:35:16.350Z,55.60
2023-11-12T03:37:44.647Z,56.03
2023-11-12T03:40:12.612Z,55.80
2023-11-12T03:42:40.767Z,55.38
2023-11-12T03:45:27.743Z,55.45
2023-11-12T03:47:57.503Z,55.05
2023-11-12T03:50:26.765Z,55.23
2023-11-12T03:52:54.668Z,55.12
2023-11-12T03:55:23.458Z,54.88
2023-11-12T03:57:51.417Z,55.32
2023-11-12T04:00:19.455Z,55.88
2023-11-12T04:02:50.032Z,55.65
2023-11-12T04:05:17.762Z,55.07
2023-11-12T04:07:45.908Z,55.11
2023-11-12T04:10:14.546Z,55.42
2023-11-12T04:12:42.672Z,56.27
2023-11-12T04:15:10.465Z,55.10
2023-11-12T04:17:39.300Z,54.50
2023-11-12T04:20:08.902Z,54.41
2023-11-12T04:22:37.437Z,54.04
2023-11-12T04:25:05.995Z,54.40
2023-11-12T04:27:33.556Z,54.17
2023-11-12T04:30:01.991Z,54.29
2023-11-12T04:32:29.959Z,55.40
2023-11-12T04:34:57.405Z,53.69
2023-11-12T04:37:26.868Z,54.31
2023-11-12T04:39:54.889Z,54.76
2023-11-12T04:42:23.407Z,54.53
2023-11-12T04:44:51.258Z,54.04
2023-11-12T04:47:20.024Z,54.12
2023-11-12T04:49:47.723Z,54.46
2023-11-12T04:52:15.979Z,53.69
2023-11-12T04:54:48.958Z,53.79
2023-11-12T04:57:18.669Z,54.69
2023-11-12T04:59:46.875Z,53.51
2023-11-12T05:02:15.432Z,53.69
2023-11-12T05:04:45.130Z,54.95
2023-11-12T05:07:36.550Z,54.67
2023-11-12T05:10:06.395Z,54.63
2023-11-12T05:12:34.884Z,56.06
2023-11-12T05:15:02.600Z,54.89
2023-11-12T05:17:31.183Z,55.51
2023-11-12T05:19:59.135Z,54.96
2023-11-12T05:22:26.749Z,55.24
2023-11-12T05:24:55.198Z,55.64
2023-11-12T05:27:23.323Z,55.57
2023-11-12T05:29:53.447Z,54.71
2023-11-12T05:32:21.521Z,55.01
2023-11-12T05:34:49.689Z,55.12
2023-11-12T05:37:17.690Z,55.21
2023-11-12T05:39:45.574Z,54.79
2023-11-12T05:42:13.654Z,54.87
2023-11-12T05:44:41.102Z,55.39
2023-11-12T05:47:09.004Z,55.34
2023-11-12T05:49:36.953Z,54.62
2023-11-12T05:52:04.937Z,55.33
2023-11-12T05:54:32.923Z,54.52
2023-11-12T05:57:01.863Z,54.23
2023-11-12T05:59:29.595Z,55.73
2023-11-12T06:01:57.056Z,55.48
2023-11-12T06:04:25.213Z,54.68
2023-11-12T06:06:53.026Z,55.71
2023-11-12T06:09:21.085Z,55.33
2023-11-12T06:12:05.941Z,55.98
2023-11-12T06:14:34.340Z,56.29
2023-11-12T06:17:02.345Z,55.93
2023-11-12T06:19:30.052Z,56.16
2023-11-12T06:21:58.337Z,55.80
2023-11-12T06:24:26.597Z,56.36
2023-11-12T06:26:54.617Z,57.63
2023-11-12T06:29:22.308Z,56.47
2023-11-12T06:31:50.110Z,57.61
2023-11-12T06:34:20.130Z,56.96
2023-11-12T06:36:48.094Z,57.78
2023-11-12T06:39:15.961Z,57.37
2023-11-12T06:41:43.921Z,56.51
2023-11-12T06:44:16.612Z,56.36
2023-11-12T06:46:46.363Z,57.55
2023-11-12T06:49:14.725Z,56.47
2023-11-12T06:51:43.628Z,56.42
2023-11-12T06:54:12.286Z,56.55
2023-11-12T06:56:40.473Z,56.00
2023-11-12T06:59:08.357Z,56.01
2023-11-12T07:01:37.937Z,56.34
2023-11-12T07:04:06.505Z,57.31
2023-11-12T07:06:34.736Z,56.65
2023-11-12T07:09:02.477Z,56.36
2023-11-12T07:11:30.026Z,56.64
2023-11-12T07:13:58.032Z,56.17
2023-11-12T07:16:28.803Z,56.13
2023-11-12T07:18:59.384Z,54.92
2023-11-12T07:21:29.261Z,56.23
2023-11-12T07:23:57.686Z,55.91
2023-11-12T07:26:26.034Z,55.66
2023-11-12T07:28:55.152Z,55.89
2023-11-12T07:31:25.878Z,55.81
2023-11-12T07:33:53.909Z,55.89
2023-11-12T07:36:25.528Z,56.16
2023-11-12T07:38:53.203Z,54.43
2023-11-12T07:41:21.228Z,55.31
2023-11-12T07:43:48.741Z,54.85
2023-11-12T07:46:16.846Z,54.62
2023-11-12T07:48:45.327Z,54.01
2023-11-12T07:51:16.345Z,53.18
2023-11-12T07:54:07.162Z,54.55
2023-11-12T07:56:41.538Z,54.81
2023-11-12T07:59:10.617Z,55.75
2023-11-12T08:01:38.348Z,54.85
2023-11-12T08:04:09.564Z,53.68
2023-11-12T08:06:37.694Z,53.43
2023-11-12T08:09:05.437Z,52.54
2023-11-12T08:11:40.492Z,51.84
2023-11-12T08:14:10.330Z,54.03
2023-11-12T08:16:38.579Z,53.26
2023-11-12T08:19:07.337Z,52.13
2023-11-12T08:21:35.527Z,52.96
2023-11-12T08:24:04.828Z,52.38
2023-11-12T08:26:33.719Z,51.99
2023-11-12T08:29:01.379Z,51.85
2023-11-12T08:31:29.345Z,52.80
2023-11-12T08:33:56.807Z,50.74
2023-11-12T08:36:24.299Z,52.48
2023-11-12T08:38:52.288Z,51.51
2023-11-12T08:41:20.303Z,52.65
2023-11-12T08:43:48.113Z,52.81
2023-11-12T08:46:17.045Z,51.73
2023-11-12T08:48:45.240Z,50.45
2023-11-12T08:51:13.481Z,50.06
2023-11-12T08:53:42.489Z,50.00
2023-11-12T08:56:10.114Z,49.96
2023-11-12T08:58:37.614Z,51.06
2023-11-12T09:01:10.095Z,52.35
2023-11-12T09:03:38.507Z,49.27
2023-11-12T09:06:07.340Z,50.17
2023-11-12T09:08:34.876Z,50.21
2023-11-12T09:11:02.887Z,49.74
2023-11-12T09:13:33.911Z,49.32
2023-11-12T09:16:01.492Z,50.56
2023-11-12T09:18:29.108Z,47.48
2023-11-12T09:20:57.803Z,47.04
2023-11-12T09:23:25.809Z,46.10
2023-11-12T09:25:53.396Z,46.86
2023-11-12T09:28:21.241Z,45.05
2023-11-12T09:30:57.548Z,46.86
2023-11-12T09:33:28.757Z,46.75
2023-11-12T09:35:56.346Z,45.43
2023-11-12T09:38:23.786Z,45.86
2023-11-12T09:40:54.679Z,47.68
2023-11-12T09:43:26.284Z,46.41
2023-11-12T09:46:00.570Z,45.69
2023-11-12T09:48:36.857Z,45.60
2023-11-12T09:51:06.811Z,44.69
2023-11-12T09:53:35.328Z,45.71
2023-11-12T09:56:10.520Z,44.30
2023-11-12T09:58:43.497Z,43.61
2023-11-12T10:01:15.201Z,45.17
2023-11-12T10:03:49.205Z,45.82
2023-11-12T10:06:18.231Z,43.76
2023-11-12T10:08:46.567Z,44.68
2023-11-12T10:11:16.256Z,43.90
2023-11-12T10:13:44.855Z,44.97
2023-11-12T10:16:31.097Z,42.78
2023-11-12T10:19:15.489Z,43.96
2023-11-12T10:21:58.241Z,43.84
2023-11-12T10:24:29.920Z,43.19
2023-11-12T10:27:06.388Z,42.08
2023-11-12T10:29:34.086Z,42.88
2023-11-12T10:32:02.033Z,44.30
2023-11-12T10:34:29.772Z,42.73
2023-11-12T10:37:15.540Z,43.19
2023-11-12T10:39:45.271Z,42.13
2023-11-12T10:42:25.822Z,41.38
2023-11-12T10:44:59.417Z,41.35
2023-11-12T10:47:28.800Z,41.79
2023-11-12T10:49:57.179Z,41.64
2023-11-12T10:52:24.933Z,41.93
2023-11-12T10:54:52.998Z,41.32
2023-11-12T10:57:24.650Z,41.52
2023-11-12T10:59:53.025Z,41.91
2023-11-12T11:02:23.133Z,41.81
2023-11-12T11:04:50.689Z,42.18
2023-11-12T11:07:18.169Z,41.71
2023-11-12T11:09:46.770Z,41.54
2023-11-12T11:12:14.676Z,40.80
2023-11-12T11:14:42.149Z,40.42
2023-11-12T11:17:37.661Z,40.72
2023-11-12T11:20:13.302Z,41.48
2023-11-12T11:22:41.444Z,41.68
2023-11-12T11:25:23.579Z,41.35
2023-11-12T11:28:21.164Z,40.80
2023-11-12T11:31:12.390Z,41.18
2023-11-12T11:33:48.259Z,41.62
2023-11-12T11:36:17.762Z,40.69
2023-11-12T11:39:12.226Z,41.06
2023-11-12T11:41:49.231Z,40.33
2023-11-12T11:44:32.366Z,41.26
2023-11-12T11:47:05.282Z,41.43
2023-11-12T11:49:33.756Z,42.65
2023-11-12T11:52:01.688Z,41.42
2023-11-12T11:54:29.796Z,41.15
2023-11-12T11:56:58.549Z,41.64
2023-11-12T11:59:26.556Z,39.83
2023-11-12T12:02:00.565Z,40.17
2023-11-12T12:04:28.983Z,40.75
2023-11-12T12:07:00.054Z,40.77
2023-11-12T12:09:28.010Z,40.53
2023-11-12T12:11:56.688Z,40.77
2023-11-12T12:14:25.768Z,41.06
2023-11-12T12:16:53.522Z,40.19
2023-11-12T12:19:22.778Z,41.23
2023-11-12T12:21:51.931Z,38.75
2023-11-12T12:24:23.693Z,39.59
2023-11-12T12:26:52.042Z,39.72
2023-11-12T12:29:21.905Z,38.96
2023-11-12T12:31:50.273Z,38.85
2023-11-12T12:34:20.458Z,38.22
2023-11-12T12:37:09.185Z,37.99
2023-11-12T12:40:12.237Z,39.20
2023-11-12T12:42:40.173Z,38.63
2023-11-12T12:45:17.183Z,39.36
2023-11-12T12:47:45.878Z,38.60
2023-11-12T12:50:17.021Z,38.43
2023-11-12T12:52:46.492Z,38.55
2023-11-12T12:55:18.516Z,39.99
2023-11-12T12:57:51.672Z,39.51
2023-11-12T13:00:22.971Z,39.54
2023-11-12T13:02:53.177Z,40.04
2023-11-12T13:05:23.091Z,39.30
2023-11-12T13:07:58.060Z,40.25
2023-11-12T13:10:27.027Z,39.02
2023-11-12T13:12:57.331Z,40.46
2023-11-12T13:15:26.771Z,39.12
2023-11-12T13:17:55.322Z,39.34
2023-11-12T13:20:26.790Z,41.27
2023-11-12T13:22:56.456Z,40.60
2023-11-12T13:25:24.723Z,38.47
2023-11-12T13:27:54.695Z,38.51
2023-11-12T13:30:24.382Z,37.83
2023-11-12T13:32:52.483Z,38.01
2023-11-12T13:35:20.225Z,38.22
2023-11-12T13:37:48.168Z,38.07
2023-11-12T13:40:16.470Z,38.40
2023-11-12T13:42:45.055Z,38.65
2023-11-12T13:45:15.335Z,38.87
2023-11-12T13:47:43.521Z,39.31
2023-11-12T13:50:15.511Z,39.20
2023-11-12T13:52:45.222Z,38.61
2023-11-12T13:55:12.999Z,38.84
2023-11-12T13:57:40.541Z,38.24
2023-11-12T14:00:12.901Z,39.68
2023-11-12T14:02:42.035Z,38.14
2023-11-12T14:05:10.083Z,38.75
2023-11-12T14:07:40.931Z,38.72
2023-11-12T14:10:11.470Z,38.46
2023-11-12T14:12:40.287Z,39.38
2023-11-12T14:15:16.520Z,40.24
2023-11-12T14:17:45.212Z,40.40
2023-11-12T14:20:21.736Z,41.43
2023-11-12T14:22:52.299Z,42.03
2023-11-12T14:25:20.614Z,42.98
2023-11-12T14:27:49.798Z,43.00
2023-11-12T14:30:20.019Z,44.46
2023-11-12T14:32:48.652Z,43.50
2023-11-12T14:35:17.273Z,43.39
2023-11-12T14:37:45.393Z,44.06
2023-11-12T14:40:15.639Z,44.83
2023-11-12T14:42:43.832Z,45.55
2023-11-12T14:45:21.564Z,46.16
2023-11-12T14:48:02.627Z,47.67
2023-11-12T14:50:33.853Z,47.89
2023-11-12T14:53:01.370Z,47.88
2023-11-12T14:55:29.100Z,48.21
2023-11-12T14:57:58.269Z,49.24
2023-11-12T15:00:30.829Z,49.60
2023-11-12T15:03:01.553Z,50.10
2023-11-12T15:05:29.782Z,50.57
2023-11-12T15:07:58.339Z,50.92
2023-11-12T15:10:27.167Z,51.53
2023-11-12T15:12:55.334Z,52.09
2023-11-12T15:15:23.632Z,52.13
2023-11-12T15:17:53.424Z,52.41
2023-11-12T15:20:21.939Z,52.52
2023-11-12T15:22:52.021Z,52.79
2023-11-12T15:25:20.961Z,52.77
2023-11-12T15:27:52.713Z,53.48
2023-11-12T15:30:21.147Z,53.28
2023-11-12T15:32:49.287Z,53.44
2023-11-12T15:35:19.600Z,53.58
2023-11-12T15:37:51.082Z,54.28
2023-11-12T15:40:19.721Z,54.54
2023-11-12T15:42:51.228Z,54.60
2023-11-12T15:45:20.089Z,55.01
2023-11-12T15:47:49.064Z,54.72
2023-11-12T15:50:18.437Z,54.64
2023-11-12T15:52:47.190Z,54.66
2023-11-12T15:55:16.066Z,55.09
2023-11-12T15:57:45.436Z,55.16
2023-11-12T16:00:14.284Z,55.43
2023-11-12T16:02:42.611Z,55.67
2023-11-12T16:05:14.065Z,56.13
2023-11-12T16:07:43.619Z,56.18
2023-11-12T16:10:13.450Z,56.32
2023-11-12T16:12:42.633Z,56.29
2023-11-12T16:15:14.351Z,56.05
2023-11-12T16:17:51.625Z,55.75
2023-11-12T16:20:19.332Z,56.26
2023-11-12T16:22:47.786Z,57.07
2023-11-12T16:25:15.420Z,56.96
2023-11-12T16:27:43.626Z,57.25
2023-11-12T16:30:15.062Z,57.25
2023-11-12T16:32:45.633Z,57.26
2023-11-12T16:35:14.683Z,57.06
2023-11-12T16:37:50.267Z,57.51
2023-11-12T16:40:20.527Z,57.67
2023-11-12T16:42:49.998Z,57.44
2023-11-12T16:45:18.687Z,57.74
2023-11-12T16:47:46.911Z,58.04
2023-11-12T16:50:17.261Z,57.94
2023-11-12T16:52:45.368Z,58.25
2023-11-12T16:55:13.967Z,58.25
2023-11-12T16:57:41.767Z,58.33
2023-11-12T17:00:10.605Z,59.08
2023-11-12T17:02:39.312Z,59.49
2023-11-12T17:05:07.260Z,59.23
2023-11-12T17:07:35.111Z,59.29
2023-11-12T17:10:05.615Z,58.85
2023-11-12T17:12:33.986Z,59.16
2023-11-12T17:15:03.471Z,59.84
2023-11-12T17:17:33.211Z,59.67
2023-11-12T17:20:01.868Z,59.73
2023-11-12T17:22:30.701Z,59.14
2023-11-12T17:25:01.310Z,58.68
2023-11-12T17:27:30.806Z,58.73
2023-11-12T17:30:00.288Z,58.94
2023-11-12T17:32:28.669Z,58.71
2023-11-12T17:34:56.171Z,59.44
2023-11-12T17:37:24.483Z,59.20
2023-11-12T17:39:57.758Z,59.83
2023-11-12T17:42:31.430Z,60.23
2023-11-12T17:44:59.159Z,59.71
2023-11-12T17:47:27.640Z,60.00
2023-11-12T17:49:58.140Z,59.68
2023-11-12T17:52:26.608Z,60.36
2023-11-12T17:54:58.577Z,60.11
2023-11-12T17:57:28.936Z,59.97
2023-11-12T17:59:56.933Z,60.40
2023-11-12T18:02:24.713Z,60.43
2023-11-12T18:04:52.942Z,59.96
2023-11-12T18:07:20.888Z,59.88
2023-11-12T18:09:48.963Z,60.03
2023-11-12T18:12:17.098Z,60.73
2023-11-12T18:14:45.021Z,60.60
2023-11-12T18:17:14.263Z,60.36
2023-11-12T18:19:42.373Z,60.45
2023-11-12T18:22:12.587Z,60.39
2023-11-12T18:24:40.301Z,59.45
2023-11-12T18:27:08.799Z,59.52
2023-11-12T18:29:37.410Z,59.88
2023-11-12T18:32:05.547Z,59.60
2023-11-12T18:34:34.826Z,60.13
2023-11-12T18:37:03.509Z,60.30
2023-11-12T18:39:32.116Z,59.55
2023-11-12T18:42:00.908Z,59.95
2023-11-12T18:44:29.367Z,59.00
2023-11-12T18:47:01.641Z,60.03
2023-11-12T18:49:30.688Z,60.05
2023-11-12T18:52:00.689Z,59.80
2023-11-12T18:54:29.283Z,59.23
2023-11-12T18:57:05.672Z,60.60
2023-11-12T18:59:33.581Z,60.78
2023-11-12T19:02:02.445Z,60.50
2023-11-12T19:04:31.266Z,60.25
2023-11-12T19:06:59.287Z,59.96
2023-11-12T19:09:27.904Z,60.27
2023-11-12T19:11:55.894Z,60.58
2023-11-12T19:14:23.860Z,60.42
2023-11-12T19:16:54.944Z,60.40
2023-11-12T19:19:25.982Z,60.70
2023-11-12T19:22:00.861Z,61.01
2023-11-12T19:24:33.072Z,60.32
2023-11-12T19:27:01.790Z,60.14
2023-11-12T19:29:29.728Z,60.78
2023-11-12T19:31:57.940Z,60.75
2023-11-12T19:34:26.779Z,61.07
2023-11-12T19:36:55.314Z,61.15
2023-11-12T19:39:34.677Z,61.23
2023-11-12T19:42:05.790Z,60.67
2023-11-12T19:44:37.890Z,61.20
2023-11-12T19:47:06.494Z,61.24
2023-11-12T19:49:34.454Z,60.96
2023-11-12T19:52:02.230Z,61.84
2023-11-12T19:54:30.696Z,61.31
2023-11-12T19:56:58.601Z,61.01
2023-11-12T19:59:26.456Z,61.05
2023-11-12T20:01:55.186Z,61.30
2023-11-12T20:04:24.735Z,61.64
2023-11-12T20:06:57.084Z,60.97
2023-11-12T20:09:28.248Z,60.43
2023-11-12T20:11:55.875Z,61.14
2023-11-12T20:14:23.686Z,60.61
2023-11-12T20:16:59.227Z,60.75
2023-11-12T20:19:28.810Z,60.82
2023-11-12T20:21:59.667Z,61.62
2023-11-12T20:24:27.685Z,61.49
2023-11-12T20:26:58.211Z,61.75
2023-11-12T20:29:26.509Z,61.42
2023-11-12T20:31:57.886Z,61.57
2023-11-12T20:34:25.933Z,61.67
2023-11-12T20:36:53.687Z,61.29
2023-11-12T20:39:21.660Z,61.15
2023-11-12T20:41:52.186Z,60.90
2023-11-12T20:44:21.030Z,61.71
2023-11-12T20:46:49.457Z,61.20
2023-11-12T20:49:18.480Z,62.10
2023-11-12T20:51:47.703Z,61.31
2023-11-12T20:54:19.455Z,61.09
2023-11-12T20:56:47.098Z,61.50
2023-11-12T20:59:14.840Z,61.40
2023-11-12T21:01:44.106Z,61.21
2023-11-12T21:04:13.493Z,61.09
2023-11-12T21:06:42.115Z,61.84
2023-11-12T21:09:10.318Z,61.72
2023-11-12T21:11:46.885Z,60.89
2023-11-12T21:14:17.167Z,61.56
2023-11-12T21:16:45.126Z,61.67
2023-11-12T21:19:13.400Z,61.81
2023-11-12T21:21:41.472Z,62.09
2023-11-12T21:24:09.995Z,62.20
2023-11-12T21:26:40.668Z,62.52
2023-11-12T21:29:10.487Z,62.22
2023-11-12T21:31:39.319Z,61.56
2023-11-12T21:34:07.032Z,61.34
2023-11-12T21:36:35.052Z,61.20
2023-11-12T21:39:02.858Z,61.48
2023-11-12T21:41:31.057Z,62.18
2023-11-12T21:43:59.125Z,60.96
2023-11-12T21:46:28.219Z,61.37
2023-11-12T21:48:56.344Z,62.45
2023-11-12T21:51:24.417Z,61.88
2023-11-12T21:53:51.959Z,62.31
2023-11-12T21:56:19.741Z,62.37
2023-11-12T21:58:49.966Z,62.35
2023-11-12T22:01:17.785Z,62.25
2023-11-12T22:03:45.886Z,61.24
2023-11-12T22:06:13.816Z,62.22
2023-11-12T22:08:41.341Z,62.75
2023-11-12T22:11:09.912Z,62.69
2023-11-12T22:13:37.674Z,62.25
2023-11-12T22:16:05.917Z,62.77
2023-11-12T22:18:36.771Z,62.59
2023-11-12T22:21:06.654Z,61.93
2023-11-12T22:23:34.607Z,62.28
2023-11-12T22:26:03.696Z,61.93
2023-11-12T22:28:32.078Z,61.45
2023-11-12T22:31:00.167Z,61.58
2023-11-12T22:33:27.750Z,61.95
2023-11-12T22:35:55.421Z,61.94
2023-11-12T22:38:23.413Z,62.00
2023-11-12T22:40:51.091Z,61.65
2023-11-12T22:43:18.795Z,61.64
2023-11-12T22:45:46.947Z,61.08
2023-11-12T22:48:14.635Z,61.65
2023-11-12T22:50:42.204Z,61.88
2023-11-12T22:53:10.362Z,61.44
2023-11-12T22:55:37.915Z,62.48
2023-11-12T22:58:06.624Z,62.45
2023-11-12T23:00:46.716Z,60.91
2023-11-12T23:03:17.213Z,61.42
2023-11-12T23:05:46.850Z,61.64
2023-11-12T23:08:14.844Z,61.89
2023-11-12T23:10:44.060Z,62.41
2023-11-12T23:13:21.625Z,62.76
2023-11-12T23:15:49.317Z,62.65
2023-11-12T23:18:19.077Z,63.19
2023-11-12T23:20:52.455Z,63.45
2023-11-12T23:23:27.146Z,63.12
2023-11-12T23:25:54.647Z,62.94
2023-11-12T23:28:22.753Z,62.94
2023-11-12T23:30:51.141Z,62.17
2023-11-12T23:33:18.923Z,62.67
2023-11-12T23:35:47.614Z,62.84
2023-11-12T23:38:15.867Z,62.29
2023-11-12T23:40:43.490Z,62.48
2023-11-12T23:43:11.464Z,63.08
2023-11-12T23:45:39.949Z,62.68
2023-11-12T23:48:08.342Z,62.67
2023-11-12T23:50:37.134Z,62.82
2023-11-12T23:53:05.872Z,63.06
2023-11-12T23:55:33.843Z,63.01
2023-11-12T23:58:01.904Z,62.97
